createdAt,value
2023-02-05T00:01:50.364Z,4.80
2023-02-05T00:04:19.816Z,4.20
2023-02-05T00:06:48.103Z,4.80
2023-02-05T00:09:16.920Z,4.05
2023-02-05T00:11:45.116Z,4.88
2023-02-05T00:14:13.000Z,4.10
2023-02-05T00:16:41.221Z,4.05
2023-02-05T00:19:09.409Z,4.53
2023-02-05T00:21:37.648Z,4.50
2023-02-05T00:24:07.783Z,4.28
2023-02-05T00:26:36.441Z,4.25
2023-02-05T00:29:05.313Z,4.15
2023-02-05T00:31:34.074Z,4.47
2023-02-05T00:34:03.875Z,4.50
2023-02-05T00:36:32.706Z,4.28
2023-02-05T00:39:00.821Z,4.47
2023-02-05T00:41:29.434Z,4.55
2023-02-05T00:43:58.045Z,4.88
2023-02-05T00:46:26.188Z,4.93
2023-02-05T00:48:54.837Z,5.10
2023-02-05T00:51:23.316Z,4.30
2023-02-05T00:53:51.903Z,5.22
2023-02-05T00:56:20.295Z,4.70
2023-02-05T00:58:50.121Z,5.65
2023-02-05T01:01:18.514Z,4.72
2023-02-05T01:03:47.419Z,4.63
2023-02-05T01:06:15.748Z,5.53
2023-02-05T01:08:43.906Z,4.93
2023-02-05T01:11:12.241Z,5.32
2023-02-05T01:13:40.395Z,5.63
2023-02-05T01:16:10.717Z,5.15
2023-02-05T01:18:39.730Z,6.90
2023-02-05T01:21:07.805Z,5.15
2023-02-05T01:23:36.001Z,5.38
2023-02-05T01:26:04.875Z,5.00
2023-02-05T01:28:32.996Z,4.50
2023-02-05T01:31:01.871Z,5.05
2023-02-05T01:33:30.727Z,5.30
2023-02-05T01:35:58.921Z,5.53
2023-02-05T01:38:27.320Z,5.57
2023-02-05T01:40:55.578Z,5.80
2023-02-05T01:43:23.984Z,5.60
2023-02-05T01:46:19.446Z,4.47
2023-02-05T01:48:53.597Z,6.10
2023-02-05T01:51:23.949Z,4.65
2023-02-05T01:53:53.929Z,5.50
2023-02-05T01:56:33.746Z,5.38
2023-02-05T01:59:12.025Z,5.28
2023-02-05T02:01:42.334Z,5.10
2023-02-05T02:04:12.960Z,4.80
2023-02-05T02:06:41.198Z,5.15
2023-02-05T02:09:09.457Z,4.70
2023-02-05T02:11:43.807Z,4.72
2023-02-05T02:14:13.159Z,4.72
2023-02-05T02:16:42.014Z,5.15
2023-02-05T02:19:26.204Z,4.97
2023-02-05T02:22:11.877Z,6.00
2023-02-05T02:25:19.708Z,5.15
2023-02-05T02:28:25.592Z,5.53
2023-02-05T02:31:28.126Z,5.47
2023-02-05T02:34:41.155Z,5.10
2023-02-05T02:37:18.211Z,4.85
2023-02-05T02:39:58.162Z,5.13
2023-02-05T02:42:44.044Z,4.43
2023-02-05T02:45:14.745Z,3.53
2023-02-05T02:47:52.659Z,4.93
2023-02-05T02:50:35.661Z,4.50
2023-02-05T02:53:22.346Z,5.15
2023-02-05T02:55:52.279Z,4.70
2023-02-05T02:58:36.745Z,4.57
2023-02-05T03:01:08.403Z,4.82
2023-02-05T03:03:46.242Z,4.20
2023-02-05T03:06:16.740Z,4.63
2023-02-05T03:08:53.330Z,5.38
2023-02-05T03:11:21.433Z,3.97
2023-02-05T03:13:49.986Z,5.28
2023-02-05T03:16:22.792Z,4.90
2023-02-05T03:18:51.471Z,5.05
2023-02-05T03:21:34.760Z,4.65
2023-02-05T03:24:02.815Z,5.18
2023-02-05T03:26:38.612Z,4.63
2023-02-05T03:29:31.216Z,4.05
2023-02-05T03:32:30.022Z,4.05
2023-02-05T03:35:31.573Z,4.82
2023-02-05T03:38:16.328Z,4.43
2023-02-05T03:40:58.211Z,6.72
2023-02-05T03:43:53.760Z,4.68
2023-02-05T03:46:45.461Z,4.63
2023-02-05T03:49:21.262Z,4.18
2023-02-05T03:52:27.349Z,5.22
2023-02-05T03:55:21.904Z,5.45
2023-02-05T03:58:04.680Z,5.38
2023-02-05T04:00:33.834Z,4.80
2023-02-05T04:03:03.819Z,4.22
2023-02-05T04:05:33.855Z,5.03
2023-02-05T04:08:04.801Z,4.93
2023-02-05T04:10:39.533Z,3.90
2023-02-05T04:13:07.898Z,4.90
2023-02-05T04:15:37.578Z,4.50
2023-02-05T04:18:09.759Z,4.13
2023-02-05T04:20:38.155Z,5.30
2023-02-05T04:23:08.678Z,4.20
2023-02-05T04:25:39.553Z,4.25
2023-02-05T04:28:12.852Z,5.00
2023-02-05T04:30:41.213Z,4.88
2023-02-05T04:33:11.321Z,4.80
2023-02-05T04:35:40.634Z,4.53
2023-02-05T04:38:08.826Z,4.38
2023-02-05T04:40:37.216Z,5.00
2023-02-05T04:43:05.046Z,4.22
2023-02-05T04:45:33.779Z,3.78
2023-02-05T04:48:02.298Z,4.07
2023-02-05T04:50:30.375Z,4.38
2023-02-05T04:52:58.358Z,4.32
2023-02-05T04:55:26.561Z,4.22
2023-02-05T04:57:54.400Z,4.25
2023-02-05T05:00:23.124Z,4.32
2023-02-05T05:02:51.166Z,5.50
2023-02-05T05:05:19.660Z,4.40
2023-02-05T05:07:47.718Z,5.13
2023-02-05T05:10:16.024Z,4.78
2023-02-05T05:12:43.919Z,5.00
2023-02-05T05:15:12.197Z,4.15
2023-02-05T05:17:40.609Z,5.22
2023-02-05T05:20:09.549Z,4.38
2023-02-05T05:22:37.862Z,4.10
2023-02-05T05:25:06.261Z,4.03
2023-02-05T05:27:34.470Z,4.53
2023-02-05T05:30:02.679Z,4.07
2023-02-05T05:32:30.760Z,4.75
2023-02-05T05:34:58.778Z,5.03
2023-02-05T05:37:26.948Z,5.32
2023-02-05T05:40:13.618Z,6.13
2023-02-05T05:43:00.598Z,6.25
2023-02-05T05:45:28.828Z,5.38
2023-02-05T05:47:56.996Z,5.97
2023-02-05T05:50:25.097Z,5.57
2023-02-05T05:52:53.273Z,6.57
2023-02-05T05:55:21.642Z,5.68
2023-02-05T05:57:49.853Z,7.07
2023-02-05T06:00:18.464Z,6.80
2023-02-05T06:02:46.473Z,6.88
2023-02-05T06:05:14.722Z,5.45
2023-02-05T06:07:42.608Z,6.72
2023-02-05T06:10:10.991Z,5.75
2023-02-05T06:12:39.068Z,5.40
2023-02-05T06:15:07.852Z,5.35
2023-02-05T06:17:36.022Z,4.22
2023-02-05T06:20:06.137Z,4.93
2023-02-05T06:22:34.113Z,5.57
2023-02-05T06:25:02.500Z,4.78
2023-02-05T06:27:30.832Z,5.65
2023-02-05T06:29:58.722Z,5.95
2023-02-05T06:32:27.415Z,6.30
2023-02-05T06:34:55.806Z,6.72
2023-02-05T06:37:34.214Z,6.35
2023-02-05T06:40:15.839Z,5.63
2023-02-05T06:42:45.255Z,7.97
2023-02-05T06:45:13.522Z,6.30
2023-02-05T06:47:41.977Z,6.63
2023-02-05T06:50:10.511Z,6.57
2023-02-05T06:52:38.863Z,6.00
2023-02-05T06:55:07.618Z,6.60
2023-02-05T06:57:36.129Z,5.97
2023-02-05T07:00:09.093Z,6.15
2023-02-05T07:02:37.409Z,6.57
2023-02-05T07:05:05.784Z,6.38
2023-02-05T07:07:34.605Z,6.57
2023-02-05T07:10:03.405Z,5.90
2023-02-05T07:12:32.386Z,6.70
2023-02-05T07:15:00.627Z,5.82
2023-02-05T07:17:28.970Z,6.45
2023-02-05T07:19:58.932Z,6.53
2023-02-05T07:22:27.272Z,6.25
2023-02-05T07:24:55.688Z,7.05
2023-02-05T07:27:24.394Z,6.50
2023-02-05T07:29:52.559Z,6.55
2023-02-05T07:32:20.781Z,6.63
2023-02-05T07:34:48.960Z,7.35
2023-02-05T07:37:19.087Z,6.70
2023-02-05T07:39:48.736Z,6.82
2023-02-05T07:42:17.395Z,6.63
2023-02-05T07:44:52.231Z,7.28
2023-02-05T07:47:21.208Z,7.63
2023-02-05T07:49:49.144Z,8.00
2023-02-05T07:52:17.350Z,6.10
2023-02-05T07:54:45.777Z,7.22
2023-02-05T07:57:13.871Z,6.70
2023-02-05T07:59:42.244Z,7.15
2023-02-05T08:02:12.265Z,5.88
2023-02-05T08:04:40.685Z,6.07
2023-02-05T08:07:12.244Z,4.03
2023-02-05T08:09:41.025Z,5.45
2023-02-05T08:12:09.216Z,5.32
2023-02-05T08:14:39.202Z,5.97
2023-02-05T08:17:08.179Z,5.47
2023-02-05T08:19:37.003Z,5.55
2023-02-05T08:22:05.257Z,4.88
2023-02-05T08:24:33.609Z,5.68
2023-02-05T08:27:01.858Z,5.68
2023-02-05T08:29:30.576Z,5.18
2023-02-05T08:32:00.390Z,5.43
2023-02-05T08:34:29.406Z,5.68
2023-02-05T08:36:58.286Z,4.78
2023-02-05T08:39:26.944Z,5.30
2023-02-05T08:41:57.052Z,6.22
2023-02-05T08:44:25.816Z,6.22
2023-02-05T08:46:54.534Z,6.57
2023-02-05T08:49:23.354Z,5.35
2023-02-05T08:51:52.019Z,5.78
2023-02-05T08:54:20.714Z,6.10
2023-02-05T08:56:51.570Z,6.32
2023-02-05T08:59:22.415Z,5.22
2023-02-05T09:01:50.836Z,4.45
2023-02-05T09:04:23.870Z,4.88
2023-02-05T09:06:52.582Z,6.25
2023-02-05T09:09:20.779Z,5.88
2023-02-05T09:11:49.863Z,5.60
2023-02-05T09:14:18.130Z,5.18
2023-02-05T09:16:46.451Z,6.15
2023-02-05T09:19:14.550Z,4.82
2023-02-05T09:21:42.693Z,5.60
2023-02-05T09:24:10.967Z,5.53
2023-02-05T09:26:39.423Z,5.78
2023-02-05T09:29:07.735Z,5.45
2023-02-05T09:31:35.961Z,5.05
2023-02-05T09:34:04.672Z,5.03
2023-02-05T09:36:33.447Z,5.57
2023-02-05T09:39:15.024Z,5.07
2023-02-05T09:42:28.259Z,6.28
2023-02-05T09:45:35.622Z,4.93
2023-02-05T09:48:23.514Z,4.63
2023-02-05T09:50:52.408Z,5.25
2023-02-05T09:53:22.813Z,4.63
2023-02-05T09:55:51.250Z,5.30
2023-02-05T09:58:28.980Z,4.93
2023-02-05T10:01:09.012Z,5.32
2023-02-05T10:03:50.290Z,5.18
2023-02-05T10:06:49.588Z,4.85
2023-02-05T10:09:26.163Z,4.22
2023-02-05T10:12:06.956Z,4.95
2023-02-05T10:15:03.340Z,4.22
2023-02-05T10:17:53.625Z,4.38
2023-02-05T10:20:38.253Z,4.13
2023-02-05T10:23:44.673Z,4.55
2023-02-05T10:26:21.047Z,4.60
2023-02-05T10:29:22.735Z,4.88
2023-02-05T10:32:24.754Z,4.55
2023-02-05T10:35:25.273Z,5.57
2023-02-05T10:37:57.761Z,5.45
2023-02-05T10:40:39.566Z,5.30
2023-02-05T10:43:39.907Z,5.68
2023-02-05T10:46:14.563Z,5.75
2023-02-05T10:49:01.621Z,6.70
2023-02-05T10:51:43.838Z,6.22
2023-02-05T10:54:33.975Z,5.90
2023-02-05T10:57:02.507Z,5.75
2023-02-05T10:59:36.702Z,6.45
2023-02-05T11:02:09.996Z,7.18
2023-02-05T11:04:55.640Z,5.50
2023-02-05T11:07:44.905Z,5.20
2023-02-05T11:10:25.479Z,5.72
2023-02-05T11:13:20.495Z,7.32
2023-02-05T11:16:04.938Z,7.32
2023-02-05T11:18:55.116Z,6.72
2023-02-05T11:21:23.709Z,5.40
2023-02-05T11:23:57.623Z,7.22
2023-02-05T11:26:28.691Z,7.45
2023-02-05T11:28:58.622Z,6.32
2023-02-05T11:31:34.968Z,6.93
2023-02-05T11:34:09.440Z,6.40
2023-02-05T11:36:48.332Z,6.28
2023-02-05T11:39:40.795Z,7.13
2023-02-05T11:42:25.140Z,7.63
2023-02-05T11:45:00.947Z,7.57
2023-02-05T11:47:37.434Z,7.13
2023-02-05T11:50:18.894Z,6.43
2023-02-05T11:52:47.433Z,8.80
2023-02-05T11:55:32.198Z,6.15
2023-02-05T11:58:34.811Z,7.10
2023-02-05T12:01:29.328Z,6.72
2023-02-05T12:04:11.144Z,6.32
2023-02-05T12:06:55.902Z,6.97
2023-02-05T12:09:28.227Z,6.90
2023-02-05T12:12:24.084Z,7.60
2023-02-05T12:15:15.887Z,7.70
2023-02-05T12:17:50.677Z,8.23
2023-02-05T12:20:24.767Z,7.75
2023-02-05T12:23:25.628Z,8.57
2023-02-05T12:26:29.486Z,8.48
2023-02-05T12:29:19.707Z,6.53
2023-02-05T12:32:34.760Z,7.70
2023-02-05T12:36:12.112Z,6.22
2023-02-05T12:39:14.172Z,7.60
2023-02-05T12:41:44.157Z,7.03
2023-02-05T12:44:38.321Z,6.32
2023-02-05T12:48:09.490Z,6.47
2023-02-05T12:50:52.957Z,6.65
2023-02-05T12:53:52.553Z,7.40
2023-02-05T12:56:50.301Z,6.82
2023-02-05T12:59:51.527Z,6.72
2023-02-05T13:02:58.260Z,6.55
2023-02-05T13:05:55.726Z,6.65
2023-02-05T13:09:10.777Z,7.60
2023-02-05T13:11:59.874Z,6.18
2023-02-05T13:14:37.344Z,6.22
2023-02-05T13:17:20.544Z,5.95
2023-02-05T13:20:05.987Z,7.03
2023-02-05T13:23:06.282Z,7.10
2023-02-05T13:26:07.796Z,6.43
2023-02-05T13:29:13.609Z,6.35
2023-02-05T13:31:48.501Z,7.35
2023-02-05T13:34:18.818Z,6.38
2023-02-05T13:37:18.180Z,7.88
2023-02-05T13:40:10.805Z,7.57
2023-02-05T13:43:38.346Z,7.00
2023-02-05T13:46:25.379Z,6.45
2023-02-05T13:49:20.956Z,9.10
2023-02-05T13:52:07.288Z,9.20
2023-02-05T13:54:49.936Z,7.00
2023-02-05T13:57:58.039Z,6.97
2023-02-05T14:00:28.048Z,8.85
2023-02-05T14:02:58.385Z,8.98
2023-02-05T14:05:43.563Z,8.63
2023-02-05T14:08:32.001Z,10.13
2023-02-05T14:11:05.653Z,8.02
2023-02-05T14:13:36.157Z,8.07
2023-02-05T14:16:26.551Z,8.85
2023-02-05T14:19:01.357Z,7.65
2023-02-05T14:21:33.044Z,9.23
2023-02-05T14:26:52.478Z,9.35
2023-02-05T14:29:41.495Z,5.65
2023-02-05T14:32:28.690Z,9.05
2023-02-05T14:35:04.317Z,10.98
2023-02-05T14:37:45.833Z,10.55
2023-02-05T14:40:37.313Z,8.30
2023-02-05T14:43:31.344Z,11.18
2023-02-05T14:46:07.053Z,11.13
2023-02-05T14:48:42.686Z,9.35
2023-02-05T14:51:32.485Z,9.35
2023-02-05T14:54:24.553Z,9.73
2023-02-05T14:57:10.948Z,11.55
2023-02-05T14:59:50.651Z,10.80
2023-02-05T15:03:05.804Z,9.02
2023-02-05T15:05:47.324Z,9.68
2023-02-05T15:08:44.684Z,9.60
2023-02-05T15:11:34.150Z,9.05
2023-02-05T15:14:31.046Z,9.40
2023-02-05T15:17:10.780Z,8.10
2023-02-05T15:19:52.746Z,8.73
2023-02-05T15:22:41.368Z,9.70
2023-02-05T15:25:23.257Z,9.35
2023-02-05T15:27:59.919Z,9.27
2023-02-05T15:30:47.813Z,9.50
2023-02-05T15:33:29.674Z,9.20
2023-02-05T15:38:43.646Z,9.88
2023-02-05T15:41:15.830Z,14.05
2023-02-05T15:44:00.786Z,10.32
2023-02-05T15:46:32.530Z,12.20
2023-02-05T15:49:01.672Z,11.18
2023-02-05T15:51:34.536Z,9.70
2023-02-05T15:54:05.878Z,11.10
2023-02-05T15:56:45.007Z,10.48
2023-02-05T15:59:17.632Z,9.32
2023-02-05T16:02:16.340Z,9.85
2023-02-05T16:04:45.270Z,11.20
2023-02-05T16:07:23.903Z,9.02
2023-02-05T16:09:56.637Z,10.38
2023-02-05T16:12:26.384Z,10.70
2023-02-05T16:15:05.999Z,9.77
2023-02-05T16:17:49.368Z,9.43
2023-02-05T16:20:34.458Z,8.98
2023-02-05T16:23:11.397Z,9.43
2023-02-05T16:25:53.903Z,9.30
2023-02-05T16:28:52.509Z,7.53
2023-02-05T16:31:27.258Z,9.35
2023-02-05T16:34:13.562Z,10.18
2023-02-05T16:36:49.084Z,10.30
2023-02-05T16:39:40.079Z,9.20
2023-02-05T16:42:28.669Z,10.50
2023-02-05T16:45:08.708Z,12.13
2023-02-05T16:47:38.295Z,10.63
2023-02-05T16:50:42.840Z,11.27
2023-02-05T16:53:47.109Z,11.68
2023-02-05T16:56:29.591Z,13.20
2023-02-05T16:59:01.917Z,10.05
2023-02-05T17:01:39.315Z,10.88
2023-02-05T17:04:08.574Z,9.52
2023-02-05T17:06:38.652Z,11.82
2023-02-05T17:09:10.322Z,9.57
2023-02-05T17:11:43.159Z,10.73
2023-02-05T17:14:33.340Z,10.25
2023-02-05T17:17:17.815Z,10.55
2023-02-05T17:20:29.254Z,11.50
2023-02-05T17:23:03.771Z,9.68
2023-02-05T17:25:55.683Z,11.85
2023-02-05T17:28:30.069Z,11.55
2023-02-05T17:30:59.407Z,11.18
2023-02-05T17:33:29.851Z,11.00
2023-02-05T17:35:58.310Z,11.65
2023-02-05T17:38:26.866Z,10.60
2023-02-05T17:41:15.230Z,14.10
2023-02-05T17:43:43.830Z,12.70
2023-02-05T17:46:15.402Z,11.25
2023-02-05T17:48:45.115Z,14.52
2023-02-05T17:51:21.034Z,11.57
2023-02-05T17:53:50.827Z,15.63
2023-02-05T17:56:21.426Z,14.75
2023-02-05T17:58:51.659Z,14.20
2023-02-05T18:01:20.849Z,9.45
2023-02-05T18:03:50.281Z,20.17
2023-02-05T18:06:19.997Z,18.67
2023-02-05T18:08:51.600Z,18.95
2023-02-05T18:11:20.441Z,14.13
2023-02-05T18:13:48.667Z,22.02
2023-02-05T18:16:17.620Z,14.65
2023-02-05T18:18:47.012Z,16.67
2023-02-05T18:21:15.770Z,12.30
2023-02-05T18:23:44.314Z,19.08
2023-02-05T18:26:13.279Z,13.18
2023-02-05T18:28:41.977Z,12.80
2023-02-05T18:31:11.360Z,13.50
2023-02-05T18:33:40.892Z,13.65
2023-02-05T18:36:14.476Z,14.80
2023-02-05T18:38:44.031Z,14.35
2023-02-05T18:41:23.770Z,13.43
2023-02-05T18:43:59.589Z,14.70
2023-02-05T18:46:29.413Z,11.25
2023-02-05T18:48:58.112Z,12.02
2023-02-05T18:51:27.785Z,11.90
2023-02-05T18:53:57.273Z,13.93
2023-02-05T18:56:27.538Z,10.43
2023-02-05T18:59:03.391Z,13.57
2023-02-05T19:01:34.975Z,13.43
2023-02-05T19:04:11.286Z,13.68
2023-02-05T19:06:44.987Z,11.50
2023-02-05T19:09:14.190Z,13.60
2023-02-05T19:11:43.763Z,14.65
2023-02-05T19:14:16.273Z,12.95
2023-02-05T19:16:45.908Z,13.95
2023-02-05T19:19:22.601Z,16.10
2023-02-05T19:21:55.171Z,14.13
2023-02-05T19:24:23.814Z,14.07
2023-02-05T19:26:56.846Z,13.43
2023-02-05T19:29:28.696Z,14.07
2023-02-05T19:31:58.824Z,12.70
2023-02-05T19:34:28.011Z,22.08
2023-02-05T19:36:56.438Z,24.65
2023-02-05T19:39:24.928Z,19.98
2023-02-05T19:41:55.998Z,20.35
2023-02-05T19:44:24.581Z,20.13
2023-02-05T19:46:53.390Z,15.05
2023-02-05T19:49:24.384Z,14.50
2023-02-05T19:51:55.420Z,22.30
2023-02-05T19:54:25.737Z,17.45
2023-02-05T19:56:54.110Z,13.02
2023-02-05T19:59:22.972Z,14.48
2023-02-05T20:01:51.290Z,15.25
2023-02-05T20:04:26.391Z,12.38
2023-02-05T20:07:00.655Z,14.52
2023-02-05T20:09:29.342Z,14.27
2023-02-05T20:11:57.360Z,14.52
2023-02-05T20:14:26.011Z,12.80
2023-02-05T20:16:54.757Z,13.95
2023-02-05T20:19:22.915Z,12.10
2023-02-05T20:21:54.844Z,13.07
2023-02-05T20:24:23.685Z,11.95
2023-02-05T20:26:53.344Z,11.90
2023-02-05T20:29:40.691Z,12.23
2023-02-05T20:32:10.917Z,11.50
2023-02-05T20:34:45.225Z,11.30
2023-02-05T20:37:14.036Z,12.38
2023-02-05T20:39:44.179Z,11.23
2023-02-05T20:42:14.686Z,11.65
2023-02-05T20:44:44.599Z,12.13
2023-02-05T20:47:15.598Z,9.13
2023-02-05T20:49:44.897Z,15.40
2023-02-05T20:52:13.447Z,11.40
2023-02-05T20:54:41.929Z,13.45
2023-02-05T20:57:10.491Z,15.73
2023-02-05T20:59:39.018Z,12.75
2023-02-05T21:02:08.073Z,12.73
2023-02-05T21:04:37.152Z,13.25
2023-02-05T21:07:05.660Z,16.65
2023-02-05T21:09:34.424Z,11.90
2023-02-05T21:12:03.142Z,14.32
2023-02-05T21:14:34.067Z,14.07
2023-02-05T21:17:03.114Z,15.13
2023-02-05T21:19:31.852Z,16.33
2023-02-05T21:22:00.601Z,12.82
2023-02-05T21:24:29.069Z,14.02
2023-02-05T21:26:57.196Z,13.27
2023-02-05T21:29:26.039Z,12.35
2023-02-05T21:31:56.150Z,13.60
2023-02-05T21:34:28.019Z,14.13
2023-02-05T21:39:26.256Z,17.45
2023-02-05T21:41:55.065Z,12.52
2023-02-05T21:44:24.534Z,11.95
2023-02-05T21:46:54.769Z,12.43
2023-02-05T21:49:23.306Z,13.95
2023-02-05T21:51:53.553Z,13.05
2023-02-05T21:54:25.457Z,11.63
2023-02-05T21:56:54.453Z,13.23
2023-02-05T21:59:23.408Z,11.57
2023-02-05T22:01:52.577Z,12.70
2023-02-05T22:04:21.957Z,18.20
2023-02-05T22:06:50.945Z,16.70
2023-02-05T22:09:19.478Z,15.45
2023-02-05T22:11:51.491Z,15.48
2023-02-05T22:14:20.870Z,12.35
2023-02-05T22:16:49.459Z,14.35
2023-02-05T22:19:17.990Z,12.88
2023-02-05T22:21:46.279Z,13.52
2023-02-05T22:24:17.477Z,12.00
2023-02-05T22:26:47.642Z,11.82
2023-02-05T22:29:20.605Z,9.43
2023-02-05T22:31:59.034Z,10.38
2023-02-05T22:34:28.205Z,10.10
2023-02-05T22:36:56.397Z,11.25
2023-02-05T22:39:24.404Z,10.80
2023-02-05T22:41:52.611Z,10.85
2023-02-05T22:44:21.052Z,10.15
2023-02-05T22:46:49.406Z,11.45
2023-02-05T22:49:17.687Z,9.15
2023-02-05T22:51:46.160Z,11.15
2023-02-05T22:54:15.418Z,9.48
2023-02-05T22:56:45.009Z,11.75
2023-02-05T22:59:13.530Z,10.63
2023-02-05T23:01:41.941Z,11.82
2023-02-05T23:04:10.650Z,11.25
2023-02-05T23:06:42.915Z,11.18
2023-02-05T23:09:18.326Z,9.35
2023-02-05T23:11:47.143Z,12.68
2023-02-05T23:14:17.529Z,9.15
2023-02-05T23:16:48.587Z,12.80
2023-02-05T23:19:20.661Z,10.50
2023-02-05T23:21:49.346Z,9.40
2023-02-05T23:24:18.432Z,11.32
2023-02-05T23:26:50.819Z,10.20
2023-02-05T23:29:19.467Z,11.45
2023-02-05T23:31:48.289Z,11.75
2023-02-05T23:34:16.546Z,11.10
2023-02-05T23:36:44.773Z,12.63
2023-02-05T23:39:13.620Z,12.43
2023-02-05T23:41:42.013Z,11.98
2023-02-05T23:44:15.085Z,11.73
2023-02-05T23:46:45.472Z,13.07
2023-02-05T23:49:15.798Z,12.73
2023-02-05T23:51:44.111Z,12.88
2023-02-05T23:54:12.587Z,10.27
2023-02-05T23:56:41.808Z,10.60
2023-02-05T23:59:13.125Z,10.18
